Seymour Johnson Air Force Base Goldsboro US
ICAO: KGSB
IATA: GSB
Category: Large
Scheduled Services: No

Elevation: 109 ft
TransAlt. 18000 ft.

Airport Communications:
APP:119.7
ATIS:31.762
CLNC DEL:128.025
DEP:119.7
GND:138.1
ACC SOF:37.61
PMSV METRO:32.392
916TH COMD POST:31.1
4FW COMD POST:31.1
PTD:37.22
TWR:126.25

KGSB Zoom In..

Runways:

(A) RW 08 length 11760 ft width 300 ft
ILS 109.30 / hdg 81

(B) RW 26 length 11760 ft width 300 ft
ILS 109.90 / hdg 261

Location; KGSB
Day. 23 / Time. 15.14 Zulu
* Altimeter: 29.81
* Temperature: 19° c. 66.2°f.
* Wind from: 210° Speed 13 kn.
Dewpoint: 17° c.
Visibility: 10 Statute Miles.
Clouds: Scattered 1300 ft.
Clouds: Broken 1900 ft.
Clouds: Broken 2400 ft.
Clouds: Overcast 3200 ft.
Clouds: Broken 1900 ft.
Clouds: Scattered 00 ft.

KGSB 231514Z AUTO 21013KT 10SM SCT013 BKN019 BKN024 OVC032 19/17 A2981 RMK AO2 CIG 019V023 BKN019 V SCT SLP097 $


Wind From 210°
Speed 13 kn.

YouTube Music Video
 
jpsmedia.com for Web Design  worldairports.se 2018   terms of use